sensor_id;sensor_type;location;lat;lon;timestamp;P1;durP1;ratioP1;P2;durP2;ratioP2
52023;SDS011;38038;45.922;13.604;2023-02-18T00:01:13;55.53;;;43.80;;
52023;SDS011;38038;45.922;13.604;2023-02-18T00:03:40;57.75;;;43.67;;
52023;SDS011;38038;45.922;13.604;2023-02-18T00:06:11;56.10;;;44.77;;
52023;SDS011;38038;45.922;13.604;2023-02-18T00:08:42;55.60;;;44.10;;
52023;SDS011;38038;45.922;13.604;2023-02-18T00:11:09;60.13;;;44.63;;
52023;SDS011;38038;45.922;13.604;2023-02-18T00:13:36;60.17;;;45.20;;
52023;SDS011;38038;45.922;13.604;2023-02-18T00:16:02;55.37;;;43.20;;
52023;SDS011;38038;45.922;13.604;2023-02-18T00:18:32;56.00;;;43.67;;
52023;SDS011;38038;45.922;13.604;2023-02-18T00:20:58;64.17;;;44.37;;
52023;SDS011;38038;45.922;13.604;2023-02-18T00:23:24;60.77;;;43.57;;
52023;SDS011;38038;45.922;13.604;2023-02-18T00:25:58;54.73;;;43.30;;
52023;SDS011;38038;45.922;13.604;2023-02-18T00:28:42;55.80;;;44.27;;
52023;SDS011;38038;45.922;13.604;2023-02-18T00:31:15;57.63;;;46.23;;
52023;SDS011;38038;45.922;13.604;2023-02-18T00:33:43;61.73;;;45.40;;
52023;SDS011;38038;45.922;13.604;2023-02-18T00:36:12;61.63;;;43.57;;
52023;SDS011;38038;45.922;13.604;2023-02-18T00:38:47;55.00;;;45.17;;
52023;SDS011;38038;45.922;13.604;2023-02-18T00:41:17;59.93;;;46.63;;
52023;SDS011;38038;45.922;13.604;2023-02-18T00:43:43;57.50;;;43.70;;
52023;SDS011;38038;45.922;13.604;2023-02-18T00:46:09;61.77;;;43.53;;
52023;SDS011;38038;45.922;13.604;2023-02-18T00:48:35;53.87;;;42.07;;
52023;SDS011;38038;45.922;13.604;2023-02-18T00:51:01;55.47;;;43.97;;
52023;SDS011;38038;45.922;13.604;2023-02-18T00:53:28;54.77;;;44.00;;
52023;SDS011;38038;45.922;13.604;2023-02-18T00:55:54;54.87;;;43.63;;
52023;SDS011;38038;45.922;13.604;2023-02-18T00:58:20;61.37;;;45.27;;
52023;SDS011;38038;45.922;13.604;2023-02-18T01:00:47;62.00;;;46.40;;
52023;SDS011;38038;45.922;13.604;2023-02-18T01:03:13;62.37;;;47.73;;
52023;SDS011;38038;45.922;13.604;2023-02-18T01:05:39;63.30;;;51.03;;
52023;SDS011;38038;45.922;13.604;2023-02-18T01:08:06;63.70;;;50.60;;
52023;SDS011;38038;45.922;13.604;2023-02-18T01:10:32;70.83;;;49.77;;
52023;SDS011;38038;45.922;13.604;2023-02-18T01:12:59;67.17;;;48.20;;
52023;SDS011;38038;45.922;13.604;2023-02-18T01:15:25;63.20;;;46.57;;
52023;SDS011;38038;45.922;13.604;2023-02-18T01:17:51;62.20;;;48.57;;
52023;SDS011;38038;45.922;13.604;2023-02-18T01:20:17;68.97;;;46.73;;
52023;SDS011;38038;45.922;13.604;2023-02-18T01:22:43;59.90;;;47.30;;
52023;SDS011;38038;45.922;13.604;2023-02-18T01:25:09;56.63;;;46.53;;
52023;SDS011;38038;45.922;13.604;2023-02-18T01:27:35;63.00;;;46.63;;
52023;SDS011;38038;45.922;13.604;2023-02-18T01:30:02;65.93;;;47.10;;
52023;SDS011;38038;45.922;13.604;2023-02-18T01:32:32;64.37;;;46.83;;
52023;SDS011;38038;45.922;13.604;2023-02-18T01:34:59;64.27;;;49.07;;
52023;SDS011;38038;45.922;13.604;2023-02-18T01:37:26;61.80;;;47.07;;
52023;SDS011;38038;45.922;13.604;2023-02-18T01:39:52;67.73;;;48.90;;
52023;SDS011;38038;45.922;13.604;2023-02-18T01:42:19;63.13;;;47.47;;
52023;SDS011;38038;45.922;13.604;2023-02-18T01:44:47;64.63;;;47.17;;
52023;SDS011;38038;45.922;13.604;2023-02-18T01:47:13;61.33;;;46.93;;
52023;SDS011;38038;45.922;13.604;2023-02-18T01:49:40;64.20;;;48.70;;
52023;SDS011;38038;45.922;13.604;2023-02-18T01:52:08;57.27;;;44.30;;
52023;SDS011;38038;45.922;13.604;2023-02-18T01:54:44;65.17;;;49.53;;
52023;SDS011;38038;45.922;13.604;2023-02-18T01:57:22;65.00;;;45.40;;
52023;SDS011;38038;45.922;13.604;2023-02-18T01:59:52;58.30;;;44.97;;
52023;SDS011;38038;45.922;13.604;2023-02-18T02:02:23;62.40;;;48.60;;
52023;SDS011;38038;45.922;13.604;2023-02-18T02:04:51;66.10;;;47.53;;
52023;SDS011;38038;45.922;13.604;2023-02-18T02:07:18;65.20;;;47.17;;
52023;SDS011;38038;45.922;13.604;2023-02-18T02:09:45;67.47;;;48.07;;
52023;SDS011;38038;45.922;13.604;2023-02-18T02:20:31;66.87;;;46.40;;
52023;SDS011;38038;45.922;13.604;2023-02-18T02:37:48;73.40;;;50.73;;
52023;SDS011;38038;45.922;13.604;2023-02-18T02:40:44;70.87;;;50.10;;
52023;SDS011;38038;45.922;13.604;2023-02-18T02:44:02;70.77;;;50.03;;
52023;SDS011;38038;45.922;13.604;2023-02-18T02:54:37;76.03;;;52.00;;
52023;SDS011;38038;45.922;13.604;2023-02-18T02:59:31;68.13;;;52.37;;
52023;SDS011;38038;45.922;13.604;2023-02-18T03:02:13;73.77;;;54.00;;
52023;SDS011;38038;45.922;13.604;2023-02-18T03:07:32;68.17;;;53.07;;
52023;SDS011;38038;45.922;13.604;2023-02-18T03:17:54;79.50;;;54.67;;
52023;SDS011;38038;45.922;13.604;2023-02-18T03:20:28;81.73;;;52.30;;
52023;SDS011;38038;45.922;13.604;2023-02-18T03:23:00;74.73;;;53.97;;
52023;SDS011;38038;45.922;13.604;2023-02-18T03:25:29;77.53;;;54.13;;
52023;SDS011;38038;45.922;13.604;2023-02-18T03:28:01;73.07;;;56.80;;
52023;SDS011;38038;45.922;13.604;2023-02-18T03:33:05;78.28;;;65.75;;
52023;SDS011;38038;45.922;13.604;2023-02-18T03:35:33;69.43;;;52.43;;
52023;SDS011;38038;45.922;13.604;2023-02-18T03:40:42;74.60;;;55.60;;
52023;SDS011;38038;45.922;13.604;2023-02-18T03:43:07;78.70;;;54.00;;
52023;SDS011;38038;45.922;13.604;2023-02-18T03:45:34;86.30;;;54.30;;
52023;SDS011;38038;45.922;13.604;2023-02-18T03:47:59;79.93;;;51.87;;
52023;SDS011;38038;45.922;13.604;2023-02-18T03:50:25;69.37;;;50.50;;
52023;SDS011;38038;45.922;13.604;2023-02-18T03:52:51;72.00;;;50.97;;
52023;SDS011;38038;45.922;13.604;2023-02-18T03:55:16;71.73;;;51.43;;
52023;SDS011;38038;45.922;13.604;2023-02-18T03:57:42;66.50;;;51.37;;
52023;SDS011;38038;45.922;13.604;2023-02-18T04:00:08;67.50;;;51.13;;
52023;SDS011;38038;45.922;13.604;2023-02-18T04:02:35;71.90;;;52.57;;
52023;SDS011;38038;45.922;13.604;2023-02-18T04:05:01;78.03;;;53.67;;
52023;SDS011;38038;45.922;13.604;2023-02-18T04:07:27;70.47;;;53.17;;
52023;SDS011;38038;45.922;13.604;2023-02-18T04:09:52;71.80;;;55.20;;
52023;SDS011;38038;45.922;13.604;2023-02-18T04:12:18;72.67;;;54.63;;
52023;SDS011;38038;45.922;13.604;2023-02-18T04:14:44;74.03;;;56.07;;
52023;SDS011;38038;45.922;13.604;2023-02-18T04:17:09;71.20;;;53.23;;
52023;SDS011;38038;45.922;13.604;2023-02-18T04:19:35;72.10;;;56.20;;
52023;SDS011;38038;45.922;13.604;2023-02-18T04:22:01;76.90;;;57.13;;
52023;SDS011;38038;45.922;13.604;2023-02-18T04:24:27;74.47;;;58.57;;
52023;SDS011;38038;45.922;13.604;2023-02-18T04:26:53;65.33;;;57.17;;
52023;SDS011;38038;45.922;13.604;2023-02-18T04:29:19;64.10;;;52.73;;
52023;SDS011;38038;45.922;13.604;2023-02-18T04:31:44;74.47;;;52.80;;
52023;SDS011;38038;45.922;13.604;2023-02-18T04:34:10;62.90;;;50.93;;
52023;SDS011;38038;45.922;13.604;2023-02-18T04:36:36;68.40;;;52.30;;
52023;SDS011;38038;45.922;13.604;2023-02-18T04:39:02;63.53;;;49.77;;
52023;SDS011;38038;45.922;13.604;2023-02-18T04:41:27;70.07;;;48.90;;
52023;SDS011;38038;45.922;13.604;2023-02-18T04:43:53;65.10;;;49.17;;
52023;SDS011;38038;45.922;13.604;2023-02-18T04:46:19;64.57;;;48.73;;
52023;SDS011;38038;45.922;13.604;2023-02-18T04:48:44;70.63;;;51.17;;
52023;SDS011;38038;45.922;13.604;2023-02-18T04:51:10;66.33;;;46.70;;
52023;SDS011;38038;45.922;13.604;2023-02-18T04:53:36;65.10;;;49.87;;
52023;SDS011;38038;45.922;13.604;2023-02-18T04:56:01;66.90;;;49.27;;
52023;SDS011;38038;45.922;13.604;2023-02-18T04:58:27;63.53;;;51.13;;
52023;SDS011;38038;45.922;13.604;2023-02-18T05:00:53;67.33;;;53.23;;
52023;SDS011;38038;45.922;13.604;2023-02-18T05:03:23;72.57;;;58.57;;
52023;SDS011;38038;45.922;13.604;2023-02-18T05:05:49;73.13;;;52.60;;
52023;SDS011;38038;45.922;13.604;2023-02-18T05:08:15;72.60;;;54.13;;
52023;SDS011;38038;45.922;13.604;2023-02-18T05:10:40;73.37;;;52.77;;
52023;SDS011;38038;45.922;13.604;2023-02-18T05:13:06;74.60;;;53.33;;
52023;SDS011;38038;45.922;13.604;2023-02-18T05:15:32;80.23;;;56.13;;
52023;SDS011;38038;45.922;13.604;2023-02-18T05:17:57;73.37;;;54.57;;
52023;SDS011;38038;45.922;13.604;2023-02-18T05:20:23;70.93;;;52.87;;
52023;SDS011;38038;45.922;13.604;2023-02-18T05:22:49;78.27;;;53.47;;
52023;SDS011;38038;45.922;13.604;2023-02-18T05:25:15;72.97;;;55.40;;
52023;SDS011;38038;45.922;13.604;2023-02-18T05:27:40;69.03;;;53.57;;
52023;SDS011;38038;45.922;13.604;2023-02-18T05:30:06;72.17;;;57.60;;
52023;SDS011;38038;45.922;13.604;2023-02-18T05:32:32;67.37;;;50.43;;
52023;SDS011;38038;45.922;13.604;2023-02-18T05:34:58;67.27;;;51.00;;
52023;SDS011;38038;45.922;13.604;2023-02-18T05:37:24;66.73;;;50.27;;
52023;SDS011;38038;45.922;13.604;2023-02-18T05:39:49;70.60;;;51.37;;
52023;SDS011;38038;45.922;13.604;2023-02-18T05:42:15;65.60;;;50.40;;
52023;SDS011;38038;45.922;13.604;2023-02-18T05:44:41;63.10;;;51.00;;
52023;SDS011;38038;45.922;13.604;2023-02-18T05:47:08;69.53;;;52.37;;
52023;SDS011;38038;45.922;13.604;2023-02-18T05:49:35;63.17;;;50.03;;
52023;SDS011;38038;45.922;13.604;2023-02-18T05:52:02;68.37;;;51.37;;
52023;SDS011;38038;45.922;13.604;2023-02-18T05:54:29;70.27;;;50.63;;
52023;SDS011;38038;45.922;13.604;2023-02-18T05:56:55;66.60;;;54.23;;
52023;SDS011;38038;45.922;13.604;2023-02-18T05:59:21;77.30;;;57.37;;
52023;SDS011;38038;45.922;13.604;2023-02-18T06:01:47;221.50;;;204.93;;
52023;SDS011;38038;45.922;13.604;2023-02-18T06:04:13;69.97;;;55.83;;
52023;SDS011;38038;45.922;13.604;2023-02-18T06:06:39;69.53;;;50.47;;
52023;SDS011;38038;45.922;13.604;2023-02-18T06:09:05;74.90;;;53.17;;
52023;SDS011;38038;45.922;13.604;2023-02-18T06:11:32;64.43;;;51.03;;
52023;SDS011;38038;45.922;13.604;2023-02-18T06:13:58;69.70;;;51.40;;
52023;SDS011;38038;45.922;13.604;2023-02-18T06:16:24;71.63;;;53.73;;
52023;SDS011;38038;45.922;13.604;2023-02-18T06:18:50;62.90;;;51.63;;
52023;SDS011;38038;45.922;13.604;2023-02-18T06:21:16;68.63;;;51.63;;
52023;SDS011;38038;45.922;13.604;2023-02-18T06:23:41;70.33;;;50.67;;
52023;SDS011;38038;45.922;13.604;2023-02-18T06:26:07;69.57;;;50.63;;
52023;SDS011;38038;45.922;13.604;2023-02-18T06:28:33;70.50;;;52.80;;
52023;SDS011;38038;45.922;13.604;2023-02-18T06:30:59;74.77;;;52.33;;
52023;SDS011;38038;45.922;13.604;2023-02-18T06:33:25;69.13;;;49.97;;
52023;SDS011;38038;45.922;13.604;2023-02-18T06:35:58;68.70;;;53.97;;
52023;SDS011;38038;45.922;13.604;2023-02-18T06:40:51;64.63;;;49.60;;
52023;SDS011;38038;45.922;13.604;2023-02-18T06:43:17;64.27;;;51.80;;
52023;SDS011;38038;45.922;13.604;2023-02-18T06:45:43;76.27;;;56.77;;
52023;SDS011;38038;45.922;13.604;2023-02-18T06:48:09;75.03;;;53.83;;
52023;SDS011;38038;45.922;13.604;2023-02-18T06:50:35;66.67;;;51.53;;
52023;SDS011;38038;45.922;13.604;2023-02-18T06:53:01;78.57;;;54.90;;
52023;SDS011;38038;45.922;13.604;2023-02-18T06:55:27;77.03;;;54.57;;
52023;SDS011;38038;45.922;13.604;2023-02-18T06:57:52;70.20;;;54.63;;
52023;SDS011;38038;45.922;13.604;2023-02-18T07:00:18;66.17;;;52.37;;
52023;SDS011;38038;45.922;13.604;2023-02-18T07:02:44;65.90;;;52.57;;
52023;SDS011;38038;45.922;13.604;2023-02-18T07:05:10;63.27;;;49.53;;
52023;SDS011;38038;45.922;13.604;2023-02-18T07:07:35;70.73;;;53.63;;
52023;SDS011;38038;45.922;13.604;2023-02-18T07:10:02;62.93;;;50.17;;
52023;SDS011;38038;45.922;13.604;2023-02-18T07:12:28;66.07;;;53.00;;
52023;SDS011;38038;45.922;13.604;2023-02-18T07:14:54;63.90;;;50.00;;
52023;SDS011;38038;45.922;13.604;2023-02-18T07:17:19;66.43;;;48.50;;
52023;SDS011;38038;45.922;13.604;2023-02-18T07:19:45;59.27;;;48.70;;
52023;SDS011;38038;45.922;13.604;2023-02-18T07:22:11;64.60;;;51.00;;
52023;SDS011;38038;45.922;13.604;2023-02-18T07:24:37;67.90;;;50.47;;
52023;SDS011;38038;45.922;13.604;2023-02-18T07:27:02;62.10;;;51.17;;
52023;SDS011;38038;45.922;13.604;2023-02-18T07:29:28;62.27;;;48.67;;
52023;SDS011;38038;45.922;13.604;2023-02-18T07:31:54;63.97;;;50.27;;
52023;SDS011;38038;45.922;13.604;2023-02-18T07:34:20;69.53;;;54.13;;
52023;SDS011;38038;45.922;13.604;2023-02-18T07:36:45;72.07;;;56.17;;
52023;SDS011;38038;45.922;13.604;2023-02-18T07:39:11;79.43;;;62.90;;
52023;SDS011;38038;45.922;13.604;2023-02-18T07:41:37;76.90;;;61.67;;
52023;SDS011;38038;45.922;13.604;2023-02-18T07:44:03;86.10;;;64.83;;
52023;SDS011;38038;45.922;13.604;2023-02-18T07:46:29;82.90;;;64.77;;
52023;SDS011;38038;45.922;13.604;2023-02-18T07:48:55;72.07;;;56.87;;
52023;SDS011;38038;45.922;13.604;2023-02-18T07:51:21;102.73;;;74.10;;
52023;SDS011;38038;45.922;13.604;2023-02-18T07:53:47;88.47;;;64.47;;
52023;SDS011;38038;45.922;13.604;2023-02-18T07:56:13;81.10;;;60.30;;
52023;SDS011;38038;45.922;13.604;2023-02-18T07:58:39;65.47;;;50.50;;
52023;SDS011;38038;45.922;13.604;2023-02-18T08:01:09;59.80;;;48.63;;
52023;SDS011;38038;45.922;13.604;2023-02-18T08:03:38;66.77;;;49.03;;
52023;SDS011;38038;45.922;13.604;2023-02-18T08:06:05;65.27;;;49.10;;
52023;SDS011;38038;45.922;13.604;2023-02-18T08:08:32;58.03;;;46.77;;
52023;SDS011;38038;45.922;13.604;2023-02-18T08:10:59;56.73;;;45.73;;
52023;SDS011;38038;45.922;13.604;2023-02-18T08:13:31;63.67;;;49.27;;
52023;SDS011;38038;45.922;13.604;2023-02-18T08:15:57;58.90;;;48.50;;
52023;SDS011;38038;45.922;13.604;2023-02-18T08:18:23;61.77;;;49.43;;
52023;SDS011;38038;45.922;13.604;2023-02-18T08:20:50;60.73;;;48.53;;
52023;SDS011;38038;45.922;13.604;2023-02-18T08:23:17;63.80;;;49.70;;
52023;SDS011;38038;45.922;13.604;2023-02-18T08:25:44;65.67;;;49.90;;
52023;SDS011;38038;45.922;13.604;2023-02-18T08:28:11;64.93;;;50.63;;
52023;SDS011;38038;45.922;13.604;2023-02-18T08:30:37;65.50;;;50.23;;
52023;SDS011;38038;45.922;13.604;2023-02-18T08:33:03;56.33;;;50.17;;
52023;SDS011;38038;45.922;13.604;2023-02-18T08:35:28;58.13;;;47.57;;
52023;SDS011;38038;45.922;13.604;2023-02-18T08:37:54;56.57;;;50.10;;
52023;SDS011;38038;45.922;13.604;2023-02-18T08:40:20;57.53;;;49.50;;
52023;SDS011;38038;45.922;13.604;2023-02-18T08:42:46;58.83;;;49.47;;
52023;SDS011;38038;45.922;13.604;2023-02-18T08:45:11;63.77;;;50.63;;
52023;SDS011;38038;45.922;13.604;2023-02-18T08:47:37;61.83;;;50.77;;
52023;SDS011;38038;45.922;13.604;2023-02-18T08:50:03;63.20;;;47.17;;
52023;SDS011;38038;45.922;13.604;2023-02-18T08:52:29;58.73;;;49.23;;
52023;SDS011;38038;45.922;13.604;2023-02-18T08:54:55;61.93;;;48.47;;
52023;SDS011;38038;45.922;13.604;2023-02-18T08:57:21;63.43;;;47.07;;
52023;SDS011;38038;45.922;13.604;2023-02-18T08:59:47;62.33;;;48.87;;
52023;SDS011;38038;45.922;13.604;2023-02-18T09:02:13;55.13;;;48.27;;
52023;SDS011;38038;45.922;13.604;2023-02-18T09:04:39;58.40;;;48.67;;
52023;SDS011;38038;45.922;13.604;2023-02-18T09:07:05;58.17;;;45.37;;
52023;SDS011;38038;45.922;13.604;2023-02-18T09:09:30;61.37;;;48.73;;
52023;SDS011;38038;45.922;13.604;2023-02-18T09:11:56;58.50;;;48.23;;
52023;SDS011;38038;45.922;13.604;2023-02-18T09:14:22;62.23;;;52.10;;
52023;SDS011;38038;45.922;13.604;2023-02-18T09:16:48;55.80;;;49.40;;
52023;SDS011;38038;45.922;13.604;2023-02-18T09:19:15;59.37;;;51.27;;
52023;SDS011;38038;45.922;13.604;2023-02-18T09:21:41;67.57;;;52.20;;
52023;SDS011;38038;45.922;13.604;2023-02-18T09:24:07;56.90;;;48.37;;
52023;SDS011;38038;45.922;13.604;2023-02-18T09:26:33;56.10;;;48.77;;
52023;SDS011;38038;45.922;13.604;2023-02-18T09:29:00;60.33;;;51.83;;
52023;SDS011;38038;45.922;13.604;2023-02-18T09:31:26;58.83;;;49.20;;
52023;SDS011;38038;45.922;13.604;2023-02-18T09:33:57;56.47;;;48.23;;
52023;SDS011;38038;45.922;13.604;2023-02-18T09:36:24;60.30;;;49.77;;
52023;SDS011;38038;45.922;13.604;2023-02-18T09:38:50;68.47;;;52.47;;
52023;SDS011;38038;45.922;13.604;2023-02-18T09:44:08;60.67;;;53.20;;
52023;SDS011;38038;45.922;13.604;2023-02-18T09:46:38;58.13;;;49.30;;
52023;SDS011;38038;45.922;13.604;2023-02-18T09:49:14;63.57;;;53.53;;
52023;SDS011;38038;45.922;13.604;2023-02-18T09:51:42;65.73;;;53.73;;
52023;SDS011;38038;45.922;13.604;2023-02-18T09:54:13;59.00;;;52.07;;
52023;SDS011;38038;45.922;13.604;2023-02-18T10:02:38;62.77;;;46.37;;
52023;SDS011;38038;45.922;13.604;2023-02-18T10:05:06;65.27;;;51.57;;
52023;SDS011;38038;45.922;13.604;2023-02-18T10:07:40;59.07;;;48.67;;
52023;SDS011;38038;45.922;13.604;2023-02-18T10:10:42;63.63;;;50.33;;
52023;SDS011;38038;45.922;13.604;2023-02-18T10:13:05;61.27;;;47.30;;
52023;SDS011;38038;45.922;13.604;2023-02-18T10:15:39;56.73;;;46.70;;
52023;SDS011;38038;45.922;13.604;2023-02-18T10:18:11;59.53;;;47.67;;
52023;SDS011;38038;45.922;13.604;2023-02-18T10:20:45;53.73;;;45.13;;
52023;SDS011;38038;45.922;13.604;2023-02-18T10:23:14;52.50;;;43.57;;
52023;SDS011;38038;45.922;13.604;2023-02-18T10:25:42;51.37;;;42.77;;
52023;SDS011;38038;45.922;13.604;2023-02-18T10:28:10;52.77;;;46.67;;
52023;SDS011;38038;45.922;13.604;2023-02-18T10:30:39;52.07;;;43.90;;
52023;SDS011;38038;45.922;13.604;2023-02-18T10:35:52;52.57;;;46.63;;
52023;SDS011;38038;45.922;13.604;2023-02-18T10:38:47;52.88;;;46.42;;
52023;SDS011;38038;45.922;13.604;2023-02-18T10:52:33;54.37;;;48.67;;
52023;SDS011;38038;45.922;13.604;2023-02-18T10:55:07;55.08;;;49.00;;
52023;SDS011;38038;45.922;13.604;2023-02-18T10:57:46;55.23;;;49.33;;
52023;SDS011;38038;45.922;13.604;2023-02-18T11:00:21;53.43;;;47.60;;
52023;SDS011;38038;45.922;13.604;2023-02-18T11:03:01;103.40;;;95.53;;
52023;SDS011;38038;45.922;13.604;2023-02-18T11:05:42;53.23;;;46.10;;
52023;SDS011;38038;45.922;13.604;2023-02-18T11:08:10;49.43;;;44.13;;
52023;SDS011;38038;45.922;13.604;2023-02-18T11:10:49;52.90;;;43.77;;
52023;SDS011;38038;45.922;13.604;2023-02-18T11:13:29;52.87;;;44.00;;
52023;SDS011;38038;45.922;13.604;2023-02-18T11:16:00;53.00;;;43.50;;
52023;SDS011;38038;45.922;13.604;2023-02-18T11:18:31;45.33;;;40.60;;
52023;SDS011;38038;45.922;13.604;2023-02-18T11:23:51;45.93;;;40.33;;
52023;SDS011;38038;45.922;13.604;2023-02-18T11:26:22;42.70;;;38.37;;
52023;SDS011;38038;45.922;13.604;2023-02-18T11:29:02;42.50;;;38.10;;
52023;SDS011;38038;45.922;13.604;2023-02-18T11:31:44;42.33;;;37.73;;
52023;SDS011;38038;45.922;13.604;2023-02-18T11:34:21;43.73;;;37.43;;
52023;SDS011;38038;45.922;13.604;2023-02-18T11:36:51;39.67;;;35.10;;
52023;SDS011;38038;45.922;13.604;2023-02-18T11:39:19;43.57;;;35.17;;
52023;SDS011;38038;45.922;13.604;2023-02-18T11:41:53;35.00;;;31.30;;
52023;SDS011;38038;45.922;13.604;2023-02-18T11:44:24;35.67;;;32.00;;
52023;SDS011;38038;45.922;13.604;2023-02-18T11:47:01;36.70;;;33.17;;
52023;SDS011;38038;45.922;13.604;2023-02-18T11:49:31;36.77;;;33.07;;
52023;SDS011;38038;45.922;13.604;2023-02-18T11:52:13;35.67;;;31.87;;
52023;SDS011;38038;45.922;13.604;2023-02-18T11:55:01;35.83;;;32.23;;
52023;SDS011;38038;45.922;13.604;2023-02-18T11:57:37;33.40;;;30.00;;
52023;SDS011;38038;45.922;13.604;2023-02-18T12:00:30;35.47;;;32.17;;
52023;SDS011;38038;45.922;13.604;2023-02-18T12:05:56;35.70;;;31.67;;
52023;SDS011;38038;45.922;13.604;2023-02-18T12:08:29;34.77;;;31.27;;
52023;SDS011;38038;45.922;13.604;2023-02-18T12:11:00;40.15;;;35.50;;
52023;SDS011;38038;45.922;13.604;2023-02-18T12:13:34;34.27;;;31.03;;
52023;SDS011;38038;45.922;13.604;2023-02-18T12:19:24;33.97;;;30.63;;
52023;SDS011;38038;45.922;13.604;2023-02-18T12:31:12;36.60;;;33.17;;
52023;SDS011;38038;45.922;13.604;2023-02-18T12:50:36;29.03;;;26.40;;
52023;SDS011;38038;45.922;13.604;2023-02-18T12:56:02;32.03;;;29.03;;
52023;SDS011;38038;45.922;13.604;2023-02-18T13:01:19;31.40;;;28.33;;
52023;SDS011;38038;45.922;13.604;2023-02-18T13:13:03;31.97;;;28.93;;
52023;SDS011;38038;45.922;13.604;2023-02-18T13:15:22;32.37;;;29.23;;
52023;SDS011;38038;45.922;13.604;2023-02-18T13:18:00;32.77;;;29.70;;
52023;SDS011;38038;45.922;13.604;2023-02-18T13:23:01;32.00;;;29.17;;
52023;SDS011;38038;45.922;13.604;2023-02-18T13:25:27;30.43;;;27.53;;
52023;SDS011;38038;45.922;13.604;2023-02-18T13:33:34;30.17;;;27.47;;
52023;SDS011;38038;45.922;13.604;2023-02-18T13:39:27;33.30;;;30.10;;
52023;SDS011;38038;45.922;13.604;2023-02-18T13:53:33;29.50;;;26.73;;
52023;SDS011;38038;45.922;13.604;2023-02-18T14:01:46;33.87;;;30.53;;
52023;SDS011;38038;45.922;13.604;2023-02-18T14:03:50;30.77;;;27.87;;
52023;SDS011;38038;45.922;13.604;2023-02-18T14:06:23;30.70;;;27.93;;
52023;SDS011;38038;45.922;13.604;2023-02-18T14:09:33;31.07;;;28.23;;
52023;SDS011;38038;45.922;13.604;2023-02-18T14:11:53;32.60;;;29.73;;
52023;SDS011;38038;45.922;13.604;2023-02-18T14:19:37;31.37;;;28.33;;
52023;SDS011;38038;45.922;13.604;2023-02-18T14:28:00;27.90;;;25.37;;
52023;SDS011;38038;45.922;13.604;2023-02-18T14:30:48;28.27;;;25.77;;
52023;SDS011;38038;45.922;13.604;2023-02-18T14:33:16;27.47;;;25.07;;
52023;SDS011;38038;45.922;13.604;2023-02-18T14:35:52;29.03;;;26.33;;
52023;SDS011;38038;45.922;13.604;2023-02-18T14:52:18;22.27;;;20.53;;
52023;SDS011;38038;45.922;13.604;2023-02-18T14:54:52;24.00;;;21.67;;
52023;SDS011;38038;45.922;13.604;2023-02-18T14:57:19;21.93;;;20.27;;
52023;SDS011;38038;45.922;13.604;2023-02-18T14:59:56;22.20;;;20.35;;
52023;SDS011;38038;45.922;13.604;2023-02-18T15:02:28;84.50;;;79.55;;
52023;SDS011;38038;45.922;13.604;2023-02-18T15:05:16;24.17;;;22.20;;
52023;SDS011;38038;45.922;13.604;2023-02-18T15:07:59;23.40;;;21.57;;
52023;SDS011;38038;45.922;13.604;2023-02-18T15:10:38;24.33;;;22.53;;
52023;SDS011;38038;45.922;13.604;2023-02-18T15:13:07;23.93;;;22.13;;
52023;SDS011;38038;45.922;13.604;2023-02-18T15:15:38;25.73;;;23.52;;
52023;SDS011;38038;45.922;13.604;2023-02-18T15:18:11;23.27;;;21.27;;
52023;SDS011;38038;45.922;13.604;2023-02-18T15:20:47;24.67;;;22.60;;
52023;SDS011;38038;45.922;13.604;2023-02-18T15:23:14;24.80;;;22.63;;
52023;SDS011;38038;45.922;13.604;2023-02-18T15:25:43;25.43;;;23.33;;
52023;SDS011;38038;45.922;13.604;2023-02-18T15:28:20;26.10;;;23.43;;
52023;SDS011;38038;45.922;13.604;2023-02-18T15:30:51;28.23;;;26.03;;
52023;SDS011;38038;45.922;13.604;2023-02-18T15:33:18;25.80;;;23.70;;
52023;SDS011;38038;45.922;13.604;2023-02-18T15:35:45;29.60;;;27.23;;
52023;SDS011;38038;45.922;13.604;2023-02-18T15:38:28;29.20;;;27.00;;
52023;SDS011;38038;45.922;13.604;2023-02-18T15:40:55;26.52;;;24.27;;
52023;SDS011;38038;45.922;13.604;2023-02-18T15:43:22;29.53;;;26.83;;
52023;SDS011;38038;45.922;13.604;2023-02-18T15:45:51;27.23;;;25.03;;
52023;SDS011;38038;45.922;13.604;2023-02-18T15:48:27;28.50;;;25.80;;
52023;SDS011;38038;45.922;13.604;2023-02-18T15:50:57;25.60;;;23.50;;
52023;SDS011;38038;45.922;13.604;2023-02-18T15:53:27;27.63;;;25.33;;
52023;SDS011;38038;45.922;13.604;2023-02-18T15:55:54;26.03;;;23.73;;
52023;SDS011;38038;45.922;13.604;2023-02-18T16:00:53;27.60;;;25.07;;
52023;SDS011;38038;45.922;13.604;2023-02-18T16:03:22;28.87;;;26.40;;
52023;SDS011;38038;45.922;13.604;2023-02-18T16:05:51;30.00;;;27.20;;
52023;SDS011;38038;45.922;13.604;2023-02-18T16:09:00;28.60;;;26.03;;
52023;SDS011;38038;45.922;13.604;2023-02-18T16:11:42;28.00;;;25.40;;
52023;SDS011;38038;45.922;13.604;2023-02-18T16:27:32;31.07;;;28.17;;
52023;SDS011;38038;45.922;13.604;2023-02-18T16:30:19;31.37;;;28.57;;
52023;SDS011;38038;45.922;13.604;2023-02-18T16:32:49;34.23;;;30.93;;
52023;SDS011;38038;45.922;13.604;2023-02-18T16:35:16;34.63;;;31.53;;
52023;SDS011;38038;45.922;13.604;2023-02-18T16:37:42;32.63;;;29.33;;
52023;SDS011;38038;45.922;13.604;2023-02-18T16:40:23;33.23;;;29.90;;
52023;SDS011;38038;45.922;13.604;2023-02-18T16:42:57;34.83;;;31.73;;
52023;SDS011;38038;45.922;13.604;2023-02-18T16:45:35;33.97;;;30.70;;
52023;SDS011;38038;45.922;13.604;2023-02-18T16:48:02;35.27;;;31.93;;
52023;SDS011;38038;45.922;13.604;2023-02-18T16:50:29;36.87;;;33.13;;
52023;SDS011;38038;45.922;13.604;2023-02-18T16:52:57;34.17;;;30.87;;
52023;SDS011;38038;45.922;13.604;2023-02-18T16:55:25;35.90;;;32.60;;
52023;SDS011;38038;45.922;13.604;2023-02-18T16:57:53;36.00;;;32.70;;
52023;SDS011;38038;45.922;13.604;2023-02-18T17:00:19;34.40;;;31.30;;
52023;SDS011;38038;45.922;13.604;2023-02-18T17:02:47;36.80;;;33.33;;
52023;SDS011;38038;45.922;13.604;2023-02-18T17:05:16;34.57;;;31.30;;
52023;SDS011;38038;45.922;13.604;2023-02-18T17:07:43;33.63;;;30.33;;
52023;SDS011;38038;45.922;13.604;2023-02-18T17:10:10;37.30;;;33.87;;
52023;SDS011;38038;45.922;13.604;2023-02-18T17:12:36;40.13;;;36.17;;
52023;SDS011;38038;45.922;13.604;2023-02-18T17:15:14;43.03;;;39.00;;
52023;SDS011;38038;45.922;13.604;2023-02-18T17:17:52;41.27;;;36.97;;
52023;SDS011;38038;45.922;13.604;2023-02-18T17:20:18;36.23;;;32.70;;
52023;SDS011;38038;45.922;13.604;2023-02-18T17:22:44;39.60;;;35.63;;
52023;SDS011;38038;45.922;13.604;2023-02-18T17:25:16;45.10;;;40.53;;
52023;SDS011;38038;45.922;13.604;2023-02-18T17:27:45;40.17;;;35.97;;
52023;SDS011;38038;45.922;13.604;2023-02-18T17:30:11;40.17;;;36.07;;
52023;SDS011;38038;45.922;13.604;2023-02-18T17:32:37;41.23;;;37.07;;
52023;SDS011;38038;45.922;13.604;2023-02-18T17:35:03;43.67;;;39.10;;